Time;durP1;ratioP1;P1;durP2;ratioP2;P2;SDS_P1;SDS_P2;PMS_P1;PMS_P2;Temp;Humidity;BMP_temperature;BMP_pressure;BME280_temperature;BME280_humidity;BME280_pressure;Samples;Min_cycle;Max_cycle;Signal;HPM_P1;HPM_P2
2022/05/30 00:00:46;;;;;;;;;;;;;;;12.72;100.00;97643.63;1635788;87;24465;-88
2022/05/30 00:03:12;;;;;;;;;;;;;;;12.72;100.00;97642.32;1637542;86;20784;-88
2022/05/30 00:05:40;;;;;;;;;;;;;;;12.58;100.00;97639.66;1630179;86;24772;-89
2022/05/30 00:08:06;;;;;;;;;;;;;;;12.58;100.00;97640.13;1639182;86;22196;-89
2022/05/30 00:10:33;;;;;;;;;;;;;;;12.65;100.00;97637.30;1642147;86;26292;-89
2022/05/30 00:12:59;;;;;;;;;;;;;;;12.49;100.00;97635.22;1637703;86;20287;-89
2022/05/30 00:15:24;;;;;;;;;;;;;;;12.29;100.00;97630.94;1635596;85;20895;-90
2022/05/30 00:17:57;;;;;;;;;;;;;;;12.14;100.00;97638.87;1633538;86;24769;-90
2022/05/30 00:20:23;;;;;;;;;;;;;;;12.01;100.00;97632.56;1640708;85;22054;-86
2022/05/30 00:22:49;;;;;;;;;;;;;;;11.96;100.00;97634.77;1645870;86;21095;-86
2022/05/30 00:25:15;;;;;;;;;;;;;;;11.92;100.00;97629.45;1646037;86;20929;-89
2022/05/30 00:27:41;;;;;;;;;;;;;;;11.86;100.00;97623.91;1639265;86;20837;-88
2022/05/30 00:30:07;;;;;;;;;;;;;;;11.81;100.00;97625.63;1645193;86;20753;-90
2022/05/30 00:32:34;;;;;;;;;;;;;;;11.78;100.00;97625.91;1620004;87;22127;-88
2022/05/30 00:35:00;;;;;;;;;;;;;;;11.76;100.00;97625.20;1639079;85;26151;-86
2022/05/30 00:37:26;;;;;;;;;;;;;;;11.75;100.00;97624.85;1640423;86;20373;-86
2022/05/30 00:39:52;;;;;;;;;;;;;;;11.78;100.00;97627.22;1643240;86;20343;-90
2022/05/30 00:42:19;;;;;;;;;;;;;;;11.82;100.00;97623.36;1646233;86;20262;-89
2022/05/30 00:44:46;;;;;;;;;;;;;;;11.89;100.00;97619.72;1641013;86;22750;-88
2022/05/30 00:47:13;;;;;;;;;;;;;;;11.89;100.00;97613.17;1642824;85;26088;-89
2022/05/30 00:49:40;;;;;;;;;;;;;;;11.82;100.00;97610.25;1644954;86;24383;-87
2022/05/30 00:52:08;;;;;;;;;;;;;;;11.76;100.00;97608.64;1639222;86;20261;-85
2022/05/30 00:54:46;;;;;;;;;;;;;;;11.70;100.00;97604.73;1648666;86;24823;-87
2022/05/30 00:57:21;;;;;;;;;;;;;;;11.66;100.00;97606.80;1634930;85;22677;-87
2022/05/30 00:59:55;;;;;;;;;;;;;;;11.63;100.00;97607.53;1644702;85;26169;-87
2022/05/30 01:02:24;;;;;;;;;;;;;;;11.59;100.00;97608.30;1647054;86;24306;-87
2022/05/30 01:07:36;;;;;;;;;;;;;;;11.56;100.00;97599.88;1643946;86;25099;-85
2022/05/30 01:10:11;;;;;;;;;;;;;;;11.51;100.00;97598.14;1648304;86;22686;-86
2022/05/30 01:12:37;;;;;;;;;;;;;;;11.49;100.00;97596.96;1642242;86;26078;-88
2022/05/30 01:15:05;;;;;;;;;;;;;;;11.54;100.00;97590.00;1638435;86;24560;-88
2022/05/30 01:17:32;;;;;;;;;;;;;;;11.57;100.00;97585.79;1635331;86;20318;-88
2022/05/30 01:19:59;;;;;;;;;;;;;;;11.57;100.00;97587.10;1646464;86;24783;-88
2022/05/30 01:22:38;;;;;;;;;;;;;;;11.55;100.00;97586.42;1660680;84;21849;-88
2022/05/30 01:25:10;;;;;;;;;;;;;;;11.54;100.00;97586.07;1661623;85;26099;-87
2022/05/30 01:27:54;;;;;;;;;;;;;;;11.52;100.00;97582.75;1661791;85;24619;-89
2022/05/30 01:30:20;;;;;;;;;;;;;;;11.57;100.00;97586.63;1661550;86;20410;-85
2022/05/30 01:32:46;;;;;;;;;;;;;;;11.69;100.00;97584.25;1664790;84;24905;-85
2022/05/30 01:35:14;;;;;;;;;;;;;;;11.81;100.00;97588.09;1661044;85;22023;-85
2022/05/30 01:37:40;;;;;;;;;;;;;;;11.90;100.00;97588.10;1660127;84;26638;-85
2022/05/30 01:40:06;;;;;;;;;;;;;;;12.05;100.00;97585.94;1659740;84;25121;-88
2022/05/30 01:42:33;;;;;;;;;;;;;;;12.16;100.00;97580.55;1662285;84;20257;-88
2022/05/30 01:44:59;;;;;;;;;;;;;;;12.29;100.00;97581.57;1662767;85;24826;-85
2022/05/30 01:47:25;;;;;;;;;;;;;;;12.39;100.00;97575.83;1662359;84;21978;-87
2022/05/30 01:49:51;;;;;;;;;;;;;;;12.45;100.00;97575.28;1662100;84;21038;-87
2022/05/30 01:52:17;;;;;;;;;;;;;;;12.50;100.00;97571.27;1660455;84;24491;-87
2022/05/30 01:54:43;;;;;;;;;;;;;;;12.55;100.00;97573.47;1661373;84;20820;-84
2022/05/30 01:57:15;;;;;;;;;;;;;;;12.56;100.00;97569.40;1662657;86;20832;-84
2022/05/30 01:59:41;;;;;;;;;;;;;;;12.53;100.00;97572.31;1664012;84;21972;-86
2022/05/30 02:02:08;;;;;;;;;;;;;;;12.46;100.00;97569.06;1628032;86;21012;-85
2022/05/30 02:04:40;;;;;;;;;;;;;;;12.41;100.00;97569.48;1610709;87;25735;-88
2022/05/30 02:07:06;;;;;;;;;;;;;;;12.38;100.00;97575.52;1628010;87;20508;-87
2022/05/30 02:09:35;;;;;;;;;;;;;;;12.34;100.00;97576.73;1628695;86;20751;-88
2022/05/30 02:12:04;;;;;;;;;;;;;;;12.34;100.00;97579.36;1644549;86;22157;-88
2022/05/30 02:14:32;;;;;;;;;;;;;;;12.35;100.00;97579.23;1644421;86;26122;-89
2022/05/30 02:17:01;;;;;;;;;;;;;;;12.38;100.00;97582.07;1645167;86;24416;-89
2022/05/30 02:19:37;;;;;;;;;;;;;;;12.38;100.00;97578.14;1631450;86;20553;-89
2022/05/30 02:22:04;;;;;;;;;;;;;;;12.38;100.00;97577.63;1633827;86;24921;-89
2022/05/30 02:24:39;;;;;;;;;;;;;;;12.37;100.00;97578.62;1609089;87;21981;-88
2022/05/30 02:27:15;;;;;;;;;;;;;;;12.33;100.00;97573.28;1607693;88;26217;-88
2022/05/30 02:29:44;;;;;;;;;;;;;;;12.29;100.00;97573.22;1608018;87;24651;-85
2022/05/30 02:32:12;;;;;;;;;;;;;;;12.26;100.00;97573.99;1608722;87;20226;-89
2022/05/30 02:37:23;;;;;;;;;;;;;;;12.15;100.00;97569.72;1645290;86;21977;-88
2022/05/30 02:39:50;;;;;;;;;;;;;;;12.19;100.00;97575.02;1635488;86;26223;-88
2022/05/30 02:42:16;;;;;;;;;;;;;;;12.20;100.00;97577.16;1633803;88;24517;-86
2022/05/30 02:44:57;;;;;;;;;;;;;;;12.14;100.00;97579.38;1635255;86;20837;-86
2022/05/30 02:47:25;;;;;;;;;;;;;;;12.16;100.00;97580.55;1608227;88;25422;-85
2022/05/30 02:49:51;;;;;;;;;;;;;;;12.21;100.00;97578.83;1606910;88;21963;-89
2022/05/30 02:52:17;;;;;;;;;;;;;;;12.19;100.00;97580.75;1635787;86;20950;-89
2022/05/30 02:54:54;;;;;;;;;;;;;;;11.95;100.00;97574.10;1635083;86;20997;-85
2022/05/30 02:57:25;;;;;;;;;;;;;;;11.80;100.00;97570.22;1634522;86;20193;-86
2022/05/30 02:59:57;;;;;;;;;;;;;;;11.72;100.00;97570.06;1634898;86;26817;-86
2022/05/30 03:02:23;;;;;;;;;;;;;;;11.70;100.00;97572.80;1635841;86;22011;-85
2022/05/30 03:04:49;;;;;;;;;;;;;;;11.70;100.00;97574.11;1633696;86;21039;-89
2022/05/30 03:07:15;;;;;;;;;;;;;;;11.73;100.00;97569.09;1634592;86;20850;-87
2022/05/30 03:09:43;;;;;;;;;;;;;;;11.73;100.00;97573.03;1634856;86;20259;-84
2022/05/30 03:12:09;;;;;;;;;;;;;;;11.70;100.00;97578.52;1633412;86;24815;-85
2022/05/30 03:14:36;;;;;;;;;;;;;;;11.73;100.00;97580.41;1636979;86;22029;-86
2022/05/30 03:17:01;;;;;;;;;;;;;;;11.93;100.00;97576.53;1635583;86;26151;-87
2022/05/30 03:19:27;;;;;;;;;;;;;;;12.07;100.00;97578.26;1634751;85;20306;-85
2022/05/30 03:21:53;;;;;;;;;;;;;;;12.00;100.00;97580.27;1634776;86;20255;-85
2022/05/30 03:24:20;;;;;;;;;;;;;;;11.85;100.00;97585.54;1633766;86;20735;-85
2022/05/30 03:26:46;;;;;;;;;;;;;;;11.78;100.00;97589.69;1635015;86;22279;-88
2022/05/30 03:29:12;;;;;;;;;;;;;;;11.90;100.00;97581.55;1634765;86;25998;-89
2022/05/30 03:31:38;;;;;;;;;;;;;;;12.01;100.00;97580.11;1610555;86;20261;-87
2022/05/30 03:34:04;;;;;;;;;;;;;;;11.89;100.00;97586.44;1607724;87;20855;-89
2022/05/30 03:36:31;;;;;;;;;;;;;;;11.91;100.00;97583.21;1609555;88;24801;-89
2022/05/30 03:39:01;;;;;;;;;;;;;;;12.05;100.00;97587.25;1652725;85;22832;-89
2022/05/30 03:41:27;;;;;;;;;;;;;;;12.05;100.00;97582.83;1634021;85;26012;-87
2022/05/30 03:43:53;;;;;;;;;;;;;;;11.87;100.00;97580.52;1632667;88;24449;-90
2022/05/30 03:46:19;;;;;;;;;;;;;;;11.73;100.00;97587.45;1634924;85;20500;-90
2022/05/30 03:48:46;;;;;;;;;;;;;;;11.74;100.00;97593.05;1634751;86;20821;-86
2022/05/30 03:51:18;;;;;;;;;;;;;;;11.69;100.00;97585.55;1634553;86;22132;-87
2022/05/30 03:53:47;;;;;;;;;;;;;;;11.64;100.00;97590.38;1634836;86;26017;-88
2022/05/30 03:56:14;;;;;;;;;;;;;;;11.56;100.00;97591.55;1634591;86;24728;-86
2022/05/30 03:58:45;;;;;;;;;;;;;;;11.55;100.00;97585.12;1633743;88;20245;-89
2022/05/30 04:01:12;;;;;;;;;;;;;;;11.73;100.00;97585.66;1608732;87;24806;-85
2022/05/30 04:03:39;;;;;;;;;;;;;;;11.92;100.00;97587.97;1610879;88;21997;-89
2022/05/30 04:06:05;;;;;;;;;;;;;;;11.96;100.00;97587.56;1606280;87;26133;-89
2022/05/30 04:08:31;;;;;;;;;;;;;;;11.98;100.00;97590.06;1648914;86;24456;-88
2022/05/30 04:11:02;;;;;;;;;;;;;;;12.05;100.00;97591.18;1649940;86;20483;-88
2022/05/30 04:13:25;;;;;;;;;;;;;;;12.21;100.00;97603.27;1642723;86;24851;-84
2022/05/30 04:15:51;;;;;;;;;;;;;;;12.33;100.00;97600.03;1643525;86;22087;-87
2022/05/30 04:18:17;;;;;;;;;;;;;;;12.46;100.00;97600.56;1651475;86;21203;-89
2022/05/30 04:20:44;;;;;;;;;;;;;;;12.56;100.00;97598.75;1606912;88;20325;-86
2022/05/30 04:23:10;;;;;;;;;;;;;;;12.63;100.00;97600.34;1640974;87;20463;-86
2022/05/30 04:25:36;;;;;;;;;;;;;;;12.69;100.00;97600.61;1639889;87;24819;-89
2022/05/30 04:28:02;;;;;;;;;;;;;;;12.73;100.00;97599.83;1638893;86;20250;-89
2022/05/30 04:30:28;;;;;;;;;;;;;;;12.75;100.00;97600.05;1607024;88;21128;-86
2022/05/30 04:32:54;;;;;;;;;;;;;;;12.79;100.00;97599.27;1633975;86;24384;-87
2022/05/30 04:35:20;;;;;;;;;;;;;;;12.81;100.00;97599.97;1634846;86;20290;-85
2022/05/30 04:37:47;;;;;;;;;;;;;;;12.81;100.00;97593.41;1633427;86;24732;-85
2022/05/30 04:40:16;;;;;;;;;;;;;;;12.79;100.00;97594.85;1636095;87;22087;-85
2022/05/30 04:42:41;;;;;;;;;;;;;;;12.77;100.00;97598.58;1635999;87;26000;-85
2022/05/30 04:45:07;;;;;;;;;;;;;;;12.78;100.00;97606.32;1634963;87;20271;-88
2022/05/30 04:47:42;;;;;;;;;;;;;;;12.76;100.00;97600.40;1636169;87;20534;-89
2022/05/30 04:50:09;;;;;;;;;;;;;;;12.73;100.00;97602.46;1634333;86;24856;-87
2022/05/30 04:52:36;;;;;;;;;;;;;;;12.71;100.00;97601.28;1646778;86;21942;-89
2022/05/30 04:55:02;;;;;;;;;;;;;;;12.68;100.00;97600.74;1647967;86;26133;-85
2022/05/30 04:57:28;;;;;;;;;;;;;;;12.66;100.00;97603.50;1645951;86;20353;-85
2022/05/30 04:59:58;;;;;;;;;;;;;;;12.67;100.00;97611.73;1606710;87;20449;-85
2022/05/30 05:02:30;;;;;;;;;;;;;;;12.67;100.00;97610.41;1610112;87;24789;-88
2022/05/30 05:05:04;;;;;;;;;;;;;;;12.66;100.00;97606.13;1607421;87;22028;-85
2022/05/30 05:07:32;;;;;;;;;;;;;;;12.65;100.00;97598.41;1605513;88;26000;-88
2022/05/30 05:10:06;;;;;;;;;;;;;;;12.66;100.00;97607.92;1634337;86;24515;-86
2022/05/30 05:12:32;;;;;;;;;;;;;;;12.62;100.00;97606.07;1605962;88;20286;-88
2022/05/30 05:14:58;;;;;;;;;;;;;;;12.58;100.00;97606.02;1644469;86;25510;-84
2022/05/30 05:17:25;;;;;;;;;;;;;;;12.57;100.00;97601.72;1647594;86;20883;-89
2022/05/30 05:19:51;;;;;;;;;;;;;;;12.54;100.00;97605.47;1651757;86;26145;-85
2022/05/30 05:22:17;;;;;;;;;;;;;;;12.57;100.00;97606.49;1629811;85;20939;-87
2022/05/30 05:24:43;;;;;;;;;;;;;;;12.61;100.00;97607.52;1609270;88;20278;-85
2022/05/30 05:27:09;;;;;;;;;;;;;;;12.66;100.00;97614.00;1634533;87;20285;-83
2022/05/30 05:29:37;;;;;;;;;;;;;;;12.68;100.00;97605.99;1635581;87;21996;-84
2022/05/30 05:32:04;;;;;;;;;;;;;;;12.73;100.00;97610.33;1637597;86;26230;-84
2022/05/30 05:34:32;;;;;;;;;;;;;;;12.89;100.00;97612.73;1636403;86;24521;-84
2022/05/30 05:36:58;;;;;;;;;;;;;;;13.10;100.00;97615.64;1636711;86;20376;-84
2022/05/30 05:39:24;;;;;;;;;;;;;;;13.18;100.00;97616.63;1638027;86;20275;-86
2022/05/30 05:41:50;;;;;;;;;;;;;;;13.12;100.00;97618.99;1638407;86;20234;-87
2022/05/30 05:44:18;;;;;;;;;;;;;;;13.00;100.00;97618.30;1637118;86;21128;-84
2022/05/30 05:46:44;;;;;;;;;;;;;;;12.90;100.00;97623.58;1637034;86;25269;-84
2022/05/30 05:49:10;;;;;;;;;;;;;;;12.80;100.00;97618.00;1637616;86;20487;-84
2022/05/30 05:51:39;;;;;;;;;;;;;;;12.84;100.00;97624.63;1636600;86;24872;-84
2022/05/30 05:54:06;;;;;;;;;;;;;;;12.85;100.00;97624.48;1635057;86;22065;-83
2022/05/30 05:56:33;;;;;;;;;;;;;;;13.03;100.00;97623.77;1637145;86;25961;-83
2022/05/30 05:59:05;;;;;;;;;;;;;;;13.22;100.00;97625.88;1637952;86;24458;-83
2022/05/30 06:01:33;;;;;;;;;;;;;;;13.43;100.00;97645.36;1638185;86;20284;-86
2022/05/30 06:04:03;;;;;;;;;;;;;;;13.51;100.00;97637.60;1635619;86;24791;-86
2022/05/30 06:06:29;;;;;;;;;;;;;;;13.53;100.00;97642.20;1635742;86;22057;-88
2022/05/30 06:09:00;;;;;;;;;;;;;;;13.60;100.00;97641.15;1637664;86;26034;-84
2022/05/30 06:11:26;;;;;;;;;;;;;;;13.67;100.00;97640.44;1637100;86;24477;-83
2022/05/30 06:13:53;;;;;;;;;;;;;;;13.68;100.00;97638.16;1632649;86;20241;-87
2022/05/30 06:16:22;;;;;;;;;;;;;;;13.71;100.00;97643.11;1635455;86;25642;-84
2022/05/30 06:18:50;;;;;;;;;;;;;;;13.75;100.00;97648.41;1640108;85;22806;-84
2022/05/30 06:21:17;;;;;;;;;;;;;;;13.80;100.00;97643.53;1636048;86;26134;-86
2022/05/30 06:23:46;;;;;;;;;;;;;;;13.86;100.00;97647.86;1660771;84;25094;-87
2022/05/30 06:26:12;;;;;;;;;;;;;;;13.89;100.00;97648.91;1661260;84;20202;-86
2022/05/30 06:28:40;;;;;;;;;;;;;;;13.84;100.00;97648.03;1661335;84;24901;-86
2022/05/30 06:31:08;;;;;;;;;;;;;;;13.83;100.00;97641.94;1661942;83;21964;-83
2022/05/30 06:33:35;;;;;;;;;;;;;;;13.82;100.00;97643.40;1659884;84;26805;-83
2022/05/30 06:36:02;;;;;;;;;;;;;;;13.85;100.00;97646.23;1661527;84;24524;-87
2022/05/30 06:38:27;;;;;;;;;;;;;;;13.88;100.00;97641.50;1661002;84;20256;-88
2022/05/30 06:40:54;;;;;;;;;;;;;;;13.96;100.00;97648.67;1659148;84;20713;-88
2022/05/30 06:43:19;;;;;;;;;;;;;;;14.04;100.00;97646.11;1661589;84;22814;-84
2022/05/30 06:45:47;;;;;;;;;;;;;;;14.10;100.00;97650.30;1661398;85;20792;-83
2022/05/30 06:48:13;;;;;;;;;;;;;;;14.13;100.00;97649.98;1659909;84;25259;-87
2022/05/30 06:50:39;;;;;;;;;;;;;;;14.10;100.00;97650.78;1661012;84;20456;-83
2022/05/30 06:53:06;;;;;;;;;;;;;;;14.03;100.00;97651.02;1661241;84;24777;-84
2022/05/30 06:55:32;;;;;;;;;;;;;;;14.05;100.00;97644.66;1662337;84;22108;-83
2022/05/30 06:58:13;;;;;;;;;;;;;;;14.12;100.00;97648.84;1662200;84;26075;-83
2022/05/30 07:00:39;;;;;;;;;;;;;;;14.16;100.00;97653.66;1660373;84;24469;-87
2022/05/30 07:03:05;;;;;;;;;;;;;;;14.18;100.00;97654.83;1661902;84;20332;-88
2022/05/30 07:05:31;;;;;;;;;;;;;;;14.15;100.00;97661.69;1658574;85;21284;-87
2022/05/30 07:07:58;;;;;;;;;;;;;;;14.16;100.00;97664.18;1661837;84;20745;-87
2022/05/30 07:10:25;;;;;;;;;;;;;;;14.19;100.00;97673.56;1659671;84;26658;-88
2022/05/30 07:12:51;;;;;;;;;;;;;;;14.24;100.00;97671.31;1661238;84;25096;-87
2022/05/30 07:15:18;;;;;;;;;;;;;;;14.24;100.00;97667.38;1661723;84;20304;-87
2022/05/30 07:17:44;;;;;;;;;;;;;;;14.20;100.00;97664.70;1662784;84;24664;-87
2022/05/30 07:20:11;;;;;;;;;;;;;;;14.18;100.00;97660.89;1662573;84;22562;-83
2022/05/30 07:22:37;;;;;;;;;;;;;;;14.20;100.00;97666.02;1654256;84;26051;-83
2022/05/30 07:25:03;;;;;;;;;;;;;;;14.20;100.00;97672.11;1636080;86;20243;-83
2022/05/30 07:27:29;;;;;;;;;;;;;;;14.24;100.00;97673.95;1635488;86;22550;-83
2022/05/30 07:29:55;;;;;;;;;;;;;;;14.25;100.00;97676.44;1638209;86;20278;-84
2022/05/30 07:32:21;;;;;;;;;;;;;;;14.27;100.00;97676.30;1638357;86;20255;-84
2022/05/30 07:34:47;;;;;;;;;;;;;;;14.33;100.00;97677.52;1635776;86;20992;-87
2022/05/30 07:37:13;;;;;;;;;;;;;;;14.39;100.00;97681.73;1635900;87;20906;-86
2022/05/30 07:39:39;;;;;;;;;;;;;;;14.43;100.00;97687.03;1639399;86;20226;-84
2022/05/30 07:42:05;;;;;;;;;;;;;;;14.53;100.00;97681.20;1637301;87;20279;-87
2022/05/30 07:44:32;;;;;;;;;;;;;;;14.49;100.00;97686.92;1638696;86;22021;-83
2022/05/30 07:46:59;;;;;;;;;;;;;;;14.44;100.00;97694.44;1635447;86;26052;-83
2022/05/30 07:49:25;;;;;;;;;;;;;;;14.58;100.00;97686.84;1634614;86;25412;-83
2022/05/30 07:51:53;;;;;;;;;;;;;;;14.75;100.00;97696.20;1636140;86;20237;-83
2022/05/30 07:54:23;;;;;;;;;;;;;;;14.79;100.00;97700.19;1632959;86;20251;-83
2022/05/30 07:56:49;;;;;;;;;;;;;;;14.86;100.00;97705.20;1641170;85;22040;-83
2022/05/30 07:59:20;;;;;;;;;;;;;;;14.98;100.00;97704.82;1633141;86;26068;-83
2022/05/30 08:01:43;;;;;;;;;;;;;;;14.99;100.00;97709.12;1637044;86;24403;-84
2022/05/30 08:04:13;;;;;;;;;;;;;;;15.06;100.00;97707.50;1639777;86;20766;-85
2022/05/30 08:06:37;;;;;;;;;;;;;;;15.14;100.00;97707.23;1634046;86;24793;-83
2022/05/30 08:09:03;;;;;;;;;;;;;;;15.26;100.00;97704.21;1634295;87;20861;-85
2022/05/30 08:11:29;;;;;;;;;;;;;;;15.32;100.00;97707.55;1637637;86;26046;-84
2022/05/30 08:13:55;;;;;;;;;;;;;;;15.31;100.00;97699.79;1635381;87;24418;-88
2022/05/30 08:16:22;;;;;;;;;;;;;;;15.31;100.00;97708.53;1635960;86;20253;-83
2022/05/30 08:18:54;;;;;;;;;;;;;;;15.34;100.00;97708.20;1636486;87;25357;-88
2022/05/30 08:21:20;;;;;;;;;;;;;;;15.45;100.00;97715.03;1636077;86;22005;-87
2022/05/30 08:23:46;;;;;;;;;;;;;;;15.58;100.00;97718.12;1636361;87;20944;-84
2022/05/30 08:26:14;;;;;;;;;;;;;;;15.60;100.00;97717.98;1630896;87;20311;-84
2022/05/30 08:28:40;;;;;;;;;;;;;;;15.60;100.00;97718.78;1639280;87;20228;-84
2022/05/30 08:31:12;;;;;;;;;;;;;;;15.61;100.00;97716.48;1640702;86;24751;-83
2022/05/30 08:33:38;;;;;;;;;;;;;;;15.65;100.00;97720.97;1636357;86;22009;-83
2022/05/30 08:36:06;;;;;;;;;;;;;;;15.72;100.00;97724.62;1635829;87;20933;-84
2022/05/30 08:38:33;;;;;;;;;;;;;;;15.79;100.00;97724.34;1637357;87;24135;-84
2022/05/30 08:43:55;;;;;;;;;;;;;;;15.83;100.00;97729.63;1636456;87;24814;-87
2022/05/30 08:46:38;;;;;;;;;;;;;;;15.84;100.00;97729.48;1632888;86;23388;-87
2022/05/30 08:49:06;;;;;;;;;;;;;;;15.83;100.00;97727.81;1628740;87;26722;-84
2022/05/30 08:51:41;;;;;;;;;;;;;;;15.85;100.00;97733.78;1634814;86;24623;-84
2022/05/30 08:54:25;;;;;;;;;;;;;;;15.84;100.00;97732.61;1633729;86;20253;-84
2022/05/30 08:56:53;;;;;;;;;;;;;;;15.80;100.00;97731.27;1634966;87;24983;-83
2022/05/30 08:59:30;;;;;;;;;;;;;;;15.78;100.00;97730.59;1635029;87;22065;-83
2022/05/30 09:01:59;;;;;;;;;;;;;;;15.81;100.00;97725.02;1635622;86;26011;-85
2022/05/30 09:04:40;;;;;;;;;;;;;;;15.83;100.00;97726.98;1637853;85;25169;-88
2022/05/30 09:07:08;;;;;;;;;;;;;;;15.84;100.00;97728.16;1635433;86;20220;-88
2022/05/30 09:09:47;;;;;;;;;;;;;;;15.83;100.00;97728.31;1636109;87;24788;-84
2022/05/30 09:12:22;;;;;;;;;;;;;;;15.88;100.00;97736.58;1635691;86;22224;-84
2022/05/30 09:14:57;;;;;;;;;;;;;;;15.90;100.00;97731.98;1637195;86;25948;-83
2022/05/30 09:17:29;;;;;;;;;;;;;;;15.89;100.00;97735.59;1636579;85;24608;-84
2022/05/30 09:19:53;;;;;;;;;;;;;;;15.84;100.00;97737.88;1636443;87;20220;-85
2022/05/30 09:22:21;;;;;;;;;;;;;;;15.85;100.00;97741.69;1639017;86;25433;-88
2022/05/30 09:25:55;;;;;;;;;;;;;;;15.85;100.00;97743.02;1665843;84;22062;-84
2022/05/30 09:27:15;;;;;;;;;;;;;;;15.93;100.00;97744.84;1666061;84;26167;-84
2022/05/30 09:29:43;;;;;;;;;;;;;;;15.93;100.00;97744.05;1667139;85;20296;-84
2022/05/30 09:32:24;;;;;;;;;;;;;;;15.88;100.00;97743.17;1667893;84;20234;-84
2022/05/30 09:34:52;;;;;;;;;;;;;;;15.89;100.00;97751.44;1637027;86;24809;-84
2022/05/30 09:37:25;;;;;;;;;;;;;;;15.97;100.00;97748.84;1606515;89;22769;-84
2022/05/30 09:39:51;;;;;;;;;;;;;;;16.05;100.00;97743.59;1611177;87;26200;-88
2022/05/30 09:42:23;;;;;;;;;;;;;;;16.19;100.00;97742.19;1646936;86;24577;-88
2022/05/30 09:44:51;;;;;;;;;;;;;;;16.36;100.00;97739.94;1604178;88;20720;-88
2022/05/30 09:47:18;;;;;;;;;;;;;;;16.48;100.00;97741.77;1637961;86;24834;-84
2022/05/30 09:49:46;;;;;;;;;;;;;;;16.56;100.00;97742.63;1637601;86;22052;-84
2022/05/30 09:52:28;;;;;;;;;;;;;;;16.59;100.00;97735.72;1636293;86;26088;-83
2022/05/30 09:54:55;;;;;;;;;;;;;;;16.54;100.00;97739.80;1644131;85;24462;-84
2022/05/30 09:57:39;;;;;;;;;;;;;;;16.50;100.00;97743.77;1645978;85;20213;-84
2022/05/30 10:00:10;;;;;;;;;;;;;;;16.46;100.00;97743.27;1637090;86;24819;-83
2022/05/30 10:02:38;;;;;;;;;;;;;;;16.49;100.00;97738.14;1606543;87;21938;-84
2022/05/30 10:05:21;;;;;;;;;;;;;;;16.65;100.00;97737.72;1634906;86;26032;-84
2022/05/30 10:07:52;;;;;;;;;;;;;;;16.62;100.00;97731.45;1635299;86;24447;-85
2022/05/30 10:10:22;;;;;;;;;;;;;;;16.60;100.00;97732.09;1638619;86;20279;-86
2022/05/30 10:12:59;;;;;;;;;;;;;;;16.63;100.00;97736.25;1609495;87;24934;-89
2022/05/30 10:15:36;;;;;;;;;;;;;;;16.67;100.00;97734.92;1634604;86;22071;-89
2022/05/30 10:18:12;;;;;;;;;;;;;;;16.79;100.00;97736.77;1636468;86;27569;-89
2022/05/30 10:20:40;;;;;;;;;;;;;;;16.80;100.00;97732.61;1637330;87;24546;-89
2022/05/30 10:29:00;;;;;;;;;;;;;;;16.81;100.00;97743.52;1664332;85;21973;-85
2022/05/30 10:31:46;;;;;;;;;;;;;;;16.82;100.00;97737.25;1635659;85;26121;-86
2022/05/30 10:34:14;;;;;;;;;;;;;;;16.83;100.00;97738.09;1662727;85;24669;-89
2022/05/30 10:36:48;;;;;;;;;;;;;;;16.98;100.00;97733.30;1662484;84;20258;-88
2022/05/30 10:39:16;;;;;;;;;;;;;;;17.08;100.00;97734.46;1663079;84;24936;-84
2022/05/30 10:41:44;;;;;;;;;;;;;;;17.21;100.00;97728.69;1605987;88;22048;-83
2022/05/30 10:44:13;;;;;;;;;;;;;;;17.31;100.00;97732.81;1661740;84;26037;-84
2022/05/30 10:46:50;;;;;;;;;;;;;;;17.42;100.00;97732.97;1662925;85;24441;-84
2022/05/30 10:49:17;;;;;;;;;;;;;;;17.40;100.00;97733.65;1661971;84;20456;-84
2022/05/30 10:51:55;;;;;;;;;;;;;;;17.34;100.00;97736.47;1664476;85;25399;-84
2022/05/30 10:54:23;;;;;;;;;;;;;;;17.39;100.00;97744.72;1645641;86;22184;-84
2022/05/30 10:56:52;;;;;;;;;;;;;;;17.34;100.00;97743.08;1632610;86;26292;-83
2022/05/30 10:59:27;;;;;;;;;;;;;;;17.26;100.00;97735.13;1663804;85;25249;-85
2022/05/30 11:01:57;;;;;;;;;;;;;;;17.38;100.00;97731.66;1662080;85;20226;-83
2022/05/30 11:04:41;;;;;;;;;;;;;;;17.44;100.00;97738.44;1662919;84;24783;-86
2022/05/30 11:07:27;;;;;;;;;;;;;;;17.61;100.00;97730.50;1662427;85;22068;-89
2022/05/30 11:09:58;;;;;;;;;;;;;;;17.64;100.00;97738.09;1662168;84;26109;-88
2022/05/30 11:12:26;;;;;;;;;;;;;;;17.69;100.00;97737.09;1657309;84;24464;-84
2022/05/30 11:14:59;;;;;;;;;;;;;;;17.77;100.00;97738.41;1662712;85;20285;-84
2022/05/30 11:17:27;;;;;;;;;;;;;;;17.76;100.00;97736.26;1661564;84;24921;-84
2022/05/30 11:20:13;;;;;;;;;;;;;;;17.81;100.00;97745.01;1662294;84;22127;-83
2022/05/30 11:22:42;;;;;;;;;;;;;;;17.74;100.00;97735.59;1664018;84;25993;-83
2022/05/30 11:25:10;;;;;;;;;;;;;;;17.68;100.00;97738.91;1661425;84;24421;-83
2022/05/30 11:27:41;;;;;;;;;;;;;;;17.69;100.00;97745.86;1661505;84;20401;-88
2022/05/30 11:30:27;;;;;;;;;;;;;;;17.73;100.00;97740.55;1661720;84;25564;-88
2022/05/30 11:33:28;;;;;;;;;;;;;;;17.82;100.00;97737.41;1660837;84;21990;-88
2022/05/30 11:35:53;;;;;;;;;;;;;;;17.88;100.00;97735.41;1663102;84;26062;-84
2022/05/30 11:38:39;;;;;;;;;;;;;;;17.96;100.00;97736.19;1605387;89;24503;-84
2022/05/30 11:41:16;;;;;;;;;;;;;;;17.91;100.00;97731.08;1628248;86;20217;-83
2022/05/30 11:43:55;;;;;;;;;;;;;;;18.01;100.00;97738.32;1662052;84;24925;-85
2022/05/30 11:46:40;;;;;;;;;;;;;;;18.04;100.00;97738.00;1659665;84;22000;-84
2022/05/30 11:49:08;;;;;;;;;;;;;;;18.04;100.00;97734.52;1659923;84;26182;-83
2022/05/30 11:51:44;;;;;;;;;;;;;;;18.00;100.00;97738.52;1661778;84;25139;-88
2022/05/30 11:54:21;;;;;;;;;;;;;;;18.05;100.00;97734.86;1660965;85;20219;-84
2022/05/30 11:57:02;;;;;;;;;;;;;;;18.15;100.00;97735.48;1662384;84;24927;-84
2022/05/30 11:59:30;;;;;;;;;;;;;;;18.31;100.00;97739.38;1659488;84;21971;-84
2022/05/30 12:01:58;;;;;;;;;;;;;;;18.31;100.00;97738.05;1660290;84;26093;-84
2022/05/30 12:04:32;;;;;;;;;;;;;;;18.33;100.00;97740.84;1661307;84;24408;-84
2022/05/30 12:07:03;;;;;;;;;;;;;;;18.34;100.00;97729.75;1660565;85;20231;-88
2022/05/30 12:09:31;;;;;;;;;;;;;;;18.40;100.00;97733.86;1659866;84;24939;-88
2022/05/30 12:11:59;;;;;;;;;;;;;;;18.50;100.00;97734.97;1660592;85;22082;-83
2022/05/30 12:14:43;;;;;;;;;;;;;;;18.69;100.00;97737.22;1661599;84;26867;-84
2022/05/30 12:17:14;;;;;;;;;;;;;;;18.84;100.00;97737.78;1660430;84;24495;-83
2022/05/30 12:25:22;;;;;;;;;;;;;;;18.85;100.00;97736.78;1661580;85;22727;-83
2022/05/30 12:27:49;;;;;;;;;;;;;;;18.93;100.00;97728.27;1647331;85;26262;-85
2022/05/30 12:30:17;;;;;;;;;;;;;;;18.97;100.00;97727.43;1603023;88;24657;-88
2022/05/30 12:32:46;;;;;;;;;;;;;;;19.03;99.86;97725.40;1626470;87;20323;-83
2022/05/30 12:35:18;;;;;;;;;;;;;;;19.12;99.66;97715.87;1631903;86;24815;-83
2022/05/30 12:37:45;;;;;;;;;;;;;;;19.31;99.75;97723.02;1646888;86;22150;-84
2022/05/30 12:40:28;;;;;;;;;;;;;;;19.36;99.29;97725.45;1663052;84;26058;-84
2022/05/30 12:43:02;;;;;;;;;;;;;;;19.31;98.58;97723.02;1661233;84;24462;-84
2022/05/30 12:45:36;;;;;;;;;;;;;;;19.33;98.09;97718.34;1663066;84;20256;-85
2022/05/30 12:48:04;;;;;;;;;;;;;;;19.29;97.33;97719.20;1661174;84;25378;-83
2022/05/30 12:50:32;;;;;;;;;;;;;;;19.15;96.26;97716.82;1658760;84;21961;-85
2022/05/30 12:53:00;;;;;;;;;;;;;;;19.21;95.86;97717.94;1661946;84;26050;-86
2022/05/30 12:55:40;;;;;;;;;;;;;;;19.28;95.53;97713.57;1661862;84;24543;-84
2022/05/30 12:58:06;;;;;;;;;;;;;;;19.29;94.87;97712.58;1661712;85;20309;-84
2022/05/30 13:00:50;;;;;;;;;;;;;;;19.35;94.13;97709.20;1661694;84;24773;-85
2022/05/30 13:03:24;;;;;;;;;;;;;;;19.37;93.56;97707.17;1661418;84;21996;-84
2022/05/30 13:06:10;;;;;;;;;;;;;;;19.37;92.82;97711.66;1659749;84;26012;-88
2022/05/30 13:08:54;;;;;;;;;;;;;;;19.42;92.34;97704.81;1589063;88;24493;-85